Time;durP1;ratioP1;P1;durP2;ratioP2;P2;SDS_P1;SDS_P2;PMS_P1;PMS_P2;Temp;Humidity;BMP_temperature;BMP_pressure;BME280_temperature;BME280_humidity;BME280_pressure;Samples;Min_cycle;Max_cycle;Signal;HPM_P1;HPM_P2
2021/01/20 00:00:06;;;;;;;17.38;6.35;;;6.50;99.90;;;;;;5030397;28;20033;-61
2021/01/20 00:02:32;;;;;;;17.52;6.93;;;6.50;99.90;;;;;;5032001;28;20025;-58
2021/01/20 00:04:58;;;;;;;21.90;6.63;;;6.40;99.90;;;;;;5032364;28;20038;-61
2021/01/20 00:07:24;;;;;;;19.65;6.35;;;6.50;99.90;;;;;;5032212;28;20061;-62
2021/01/20 00:09:49;;;;;;;20.55;7.10;;;6.50;99.90;;;;;;5001660;28;20045;-59
2021/01/20 00:12:15;;;;;;;18.70;6.22;;;6.50;99.90;;;;;;5022600;28;20037;-59
2021/01/20 00:14:41;;;;;;;18.40;6.72;;;6.50;99.90;;;;;;5021271;28;20030;-58
2021/01/20 00:17:06;;;;;;;16.63;5.97;;;6.50;99.90;;;;;;5003929;28;20100;-57
2021/01/20 00:19:32;;;;;;;19.13;6.50;;;6.50;99.90;;;;;;5022242;28;20087;-60
2021/01/20 00:21:58;;;;;;;24.23;8.15;;;6.50;99.90;;;;;;5020681;28;20030;-61
2021/01/20 00:24:23;;;;;;;17.60;7.00;;;6.50;99.90;;;;;;5022955;28;20389;-61
2021/01/20 00:26:49;;;;;;;18.05;6.57;;;6.50;99.90;;;;;;5020630;28;20401;-59
2021/01/20 00:29:15;;;;;;;20.83;7.25;;;6.50;99.90;;;;;;5011547;28;20030;-59
2021/01/20 00:31:40;;;;;;;18.17;5.97;;;6.60;99.90;;;;;;5012001;28;20038;-60
2021/01/20 00:34:06;;;;;;;17.42;6.80;;;6.60;99.90;;;;;;5027927;28;20136;-57
2021/01/20 00:36:32;;;;;;;19.85;6.90;;;6.60;99.90;;;;;;5031810;28;20100;-59
2021/01/20 00:38:58;;;;;;;19.02;6.13;;;6.60;99.90;;;;;;4666111;28;9999610;-59
2021/01/20 00:41:23;;;;;;;15.30;6.07;;;6.50;99.90;;;;;;5028400;28;20037;-60
2021/01/20 00:43:49;;;;;;;19.13;6.25;;;6.60;99.90;;;;;;5024263;28;20033;-61
2021/01/20 00:46:14;;;;;;;16.45;5.85;;;6.60;99.90;;;;;;5028218;28;20122;-57
2021/01/20 00:48:40;;;;;;;16.02;5.47;;;6.60;99.90;;;;;;5009879;28;20044;-60
2021/01/20 00:51:05;;;;;;;17.85;5.65;;;6.60;99.90;;;;;;5000721;28;20118;-59
2021/01/20 00:53:31;;;;;;;17.55;6.55;;;6.60;99.90;;;;;;5028344;28;20029;-57
2021/01/20 00:55:57;;;;;;;17.80;5.55;;;6.50;99.90;;;;;;5028666;28;20366;-55
2021/01/20 00:58:23;;;;;;;18.00;4.90;;;6.50;99.90;;;;;;5029150;28;20032;-61
2021/01/20 01:00:49;;;;;;;16.25;5.43;;;6.50;99.90;;;;;;5029737;28;20489;-61
2021/01/20 01:03:15;;;;;;;17.95;5.30;;;6.50;99.90;;;;;;5028279;28;20515;-60
2021/01/20 01:05:43;;;;;;;16.00;4.60;;;6.50;99.90;;;;;;5025024;28;20044;-59
2021/01/20 01:08:08;;;;;;;15.15;4.82;;;6.50;99.90;;;;;;5014202;28;20033;-61
2021/01/20 01:10:34;;;;;;;15.55;4.80;;;6.50;99.90;;;;;;5026006;28;20368;-58
2021/01/20 01:12:59;;;;;;;18.15;5.72;;;6.50;99.90;;;;;;4676873;28;10000103;-59
2021/01/20 01:15:26;;;;;;;14.90;4.53;;;6.50;99.90;;;;;;5011102;23;20137;-61
2021/01/20 01:17:52;;;;;;;19.30;5.30;;;6.50;99.90;;;;;;4999260;28;20536;-57
2021/01/20 01:20:17;;;;;;;18.02;4.85;;;6.50;99.90;;;;;;4994041;28;20125;-58
2021/01/20 01:22:43;;;;;;;14.43;4.13;;;6.50;99.90;;;;;;5012127;28;20485;-57
2021/01/20 01:25:09;;;;;;;16.35;4.88;;;6.50;99.90;;;;;;5012307;28;20026;-59
2021/01/20 01:27:35;;;;;;;14.88;5.22;;;6.50;99.90;;;;;;4991236;28;20121;-57
2021/01/20 01:30:01;;;;;;;16.00;4.70;;;6.50;99.90;;;;;;4974897;28;20035;-59
2021/01/20 01:32:27;;;;;;;14.20;4.53;;;6.50;99.90;;;;;;4989296;28;20030;-60
2021/01/20 01:34:52;;;;;;;18.17;6.10;;;6.50;99.90;;;;;;4994633;28;20084;-56
2021/01/20 01:37:19;;;;;;;18.60;4.93;;;6.50;99.90;;;;;;4994572;28;20021;-57
2021/01/20 01:39:45;;;;;;;18.45;5.07;;;6.50;99.90;;;;;;4994185;28;20485;-58
2021/01/20 01:42:11;;;;;;;14.05;5.68;;;6.40;99.90;;;;;;5012577;28;20030;-58
2021/01/20 01:44:38;;;;;;;20.10;5.93;;;6.40;99.90;;;;;;4994627;28;20049;-60
2021/01/20 01:47:04;;;;;;;18.42;4.72;;;6.40;99.90;;;;;;5012210;28;20072;-53
2021/01/20 01:49:31;;;;;;;14.38;4.20;;;6.30;99.90;;;;;;5011338;28;20026;-58
2021/01/20 01:52:00;;;;;;;14.07;4.82;;;6.30;99.90;;;;;;5012166;28;20679;-58
2021/01/20 01:54:27;;;;;;;12.82;4.45;;;6.30;99.90;;;;;;4994295;28;20184;-56
2021/01/20 01:56:52;;;;;;;17.95;5.88;;;6.30;99.90;;;;;;4994412;28;20374;-57
2021/01/20 01:59:18;;;;;;;17.17;4.95;;;6.30;99.90;;;;;;5012300;28;20032;-56
2021/01/20 02:01:46;;;;;;;15.40;4.68;;;6.30;99.90;;;;;;4998232;28;20053;-58
2021/01/20 02:04:12;;;;;;;16.40;4.70;;;6.20;99.90;;;;;;5015111;28;20026;-59
2021/01/20 02:06:38;;;;;;;15.90;4.88;;;6.30;99.90;;;;;;4998002;28;20409;-60
2021/01/20 02:09:04;;;;;;;16.60;5.53;;;6.30;99.90;;;;;;4997406;28;20049;-58
2021/01/20 02:11:37;;;;;;;13.65;4.65;;;6.30;99.90;;;;;;5015957;28;20044;-56
2021/01/20 02:14:14;;;;;;;15.70;5.03;;;6.20;99.90;;;;;;5015704;28;20512;-58
2021/01/20 02:16:47;;;;;;;15.60;4.50;;;6.20;99.90;;;;;;5015944;28;20394;-56
2021/01/20 02:19:16;;;;;;;14.25;4.35;;;6.20;99.90;;;;;;5014960;28;20073;-59
2021/01/20 02:22:11;;;;;;;16.38;5.22;;;6.30;99.90;;;;;;5015572;28;20044;-59
2021/01/20 02:25:12;;;;;;;17.77;4.95;;;6.20;99.90;;;;;;5015475;28;20481;-60
2021/01/20 02:27:47;;;;;;;16.98;5.15;;;6.20;99.90;;;;;;4944590;28;20047;-57
2021/01/20 02:30:16;;;;;;;16.30;4.90;;;6.30;99.90;;;;;;5014984;28;20105;-59
2021/01/20 02:32:43;;;;;;;17.92;5.40;;;6.30;99.90;;;;;;4997961;28;20031;-58
2021/01/20 02:35:10;;;;;;;16.98;5.10;;;6.30;99.90;;;;;;5014633;28;20554;-60
2021/01/20 02:37:37;;;;;;;17.38;6.05;;;6.30;99.90;;;;;;4997490;28;20389;-60
2021/01/20 02:40:04;;;;;;;18.23;7.35;;;6.30;99.90;;;;;;4996869;28;20113;-58
2021/01/20 02:42:30;;;;;;;15.32;5.88;;;6.30;99.90;;;;;;4997496;28;20057;-57
2021/01/20 02:44:57;;;;;;;16.58;6.15;;;6.40;99.90;;;;;;5014997;28;20026;-56
2021/01/20 02:47:23;;;;;;;17.27;5.03;;;6.40;99.90;;;;;;5015482;28;20101;-58
2021/01/20 02:49:48;;;;;;;15.23;5.55;;;6.40;99.90;;;;;;4996697;28;20053;-57
2021/01/20 02:52:31;;;;;;;16.33;5.05;;;6.50;99.90;;;;;;5014998;28;20524;-60
2021/01/20 02:55:00;;;;;;;17.52;5.97;;;6.50;99.90;;;;;;5015339;28;20116;-61
2021/01/20 02:57:31;;;;;;;15.65;5.57;;;6.50;99.90;;;;;;5014557;28;20498;-57
2021/01/20 03:00:00;;;;;;;13.93;4.97;;;6.50;99.90;;;;;;5013920;28;20026;-57
2021/01/20 03:02:27;;;;;;;15.20;6.05;;;6.50;99.90;;;;;;5014820;28;20312;-57
2021/01/20 03:04:56;;;;;;;15.35;5.45;;;6.50;99.90;;;;;;5014303;28;20041;-58
2021/01/20 03:07:22;;;;;;;15.55;5.60;;;6.60;99.90;;;;;;4995969;28;20036;-59
2021/01/20 03:09:48;;;;;;;17.35;6.20;;;6.60;99.90;;;;;;4995070;28;20338;-56
2021/01/20 03:12:13;;;;;;;20.88;6.65;;;6.60;99.90;;;;;;4996735;28;20034;-58
2021/01/20 03:14:42;;;;;;;16.48;5.80;;;6.70;99.90;;;;;;5014215;28;20034;-59
2021/01/20 03:17:08;;;;;;;13.65;5.05;;;6.70;99.90;;;;;;4996956;28;20026;-56
2021/01/20 03:19:34;;;;;;;15.95;5.72;;;6.60;99.90;;;;;;5013350;28;20030;-60
2021/01/20 03:22:01;;;;;;;15.88;6.07;;;6.70;99.90;;;;;;5014306;28;20030;-59
2021/01/20 03:24:26;;;;;;;17.60;5.57;;;6.70;99.90;;;;;;5014658;28;20022;-60
2021/01/20 03:26:52;;;;;;;16.77;5.53;;;6.70;99.90;;;;;;5014498;28;20103;-58
2021/01/20 03:29:18;;;;;;;15.38;5.82;;;6.70;99.90;;;;;;4995749;28;20026;-61
2021/01/20 03:31:44;;;;;;;14.20;5.32;;;6.70;99.90;;;;;;5013975;28;20108;-58
2021/01/20 03:34:09;;;;;;;17.73;6.43;;;6.70;99.90;;;;;;5013900;28;20460;-59
2021/01/20 03:36:35;;;;;;;17.52;5.70;;;6.80;99.90;;;;;;4995891;28;20030;-58
2021/01/20 03:39:01;;;;;;;17.15;5.82;;;6.80;99.90;;;;;;5013201;28;20097;-58
2021/01/20 03:41:28;;;;;;;18.58;6.68;;;6.80;99.90;;;;;;5013676;28;20030;-56
2021/01/20 03:43:53;;;;;;;16.65;6.20;;;6.90;99.90;;;;;;4996762;28;20037;-59
2021/01/20 03:46:19;;;;;;;15.30;5.35;;;6.90;99.90;;;;;;5013516;28;20036;-60
2021/01/20 03:48:44;;;;;;;16.92;6.00;;;6.90;99.90;;;;;;5013233;28;20018;-60
2021/01/20 03:51:10;;;;;;;16.38;5.65;;;7.00;99.90;;;;;;4995964;28;20444;-59
2021/01/20 03:53:37;;;;;;;15.98;6.10;;;7.00;99.90;;;;;;5013638;28;20030;-56
2021/01/20 03:56:02;;;;;;;16.38;5.63;;;7.00;99.90;;;;;;5013663;28;20405;-60
2021/01/20 03:58:28;;;;;;;16.45;5.70;;;7.00;99.90;;;;;;5012750;28;20022;-60
2021/01/20 04:00:54;;;;;;;18.70;6.43;;;7.10;99.90;;;;;;5013647;28;20121;-59
2021/01/20 04:03:20;;;;;;;13.40;4.20;;;7.10;99.90;;;;;;4995955;28;20022;-59
2021/01/20 04:05:45;;;;;;;18.02;5.35;;;7.10;99.90;;;;;;4995308;28;20037;-55
2021/01/20 04:08:11;;;;;;;17.48;5.30;;;7.10;99.90;;;;;;5013259;28;20026;-58
2021/01/20 04:10:36;;;;;;;15.93;5.18;;;7.10;99.90;;;;;;4994785;28;20030;-61
2021/01/20 04:13:02;;;;;;;14.48;4.80;;;7.00;99.90;;;;;;4995917;28;20392;-60
2021/01/20 04:15:28;;;;;;;17.17;5.85;;;7.00;99.90;;;;;;5013166;28;20026;-58
2021/01/20 04:17:54;;;;;;;16.65;5.60;;;7.00;99.90;;;;;;5013151;28;20029;-58
2021/01/20 04:20:20;;;;;;;16.58;5.10;;;7.00;99.90;;;;;;5013371;28;20034;-58
2021/01/20 04:22:45;;;;;;;13.88;5.15;;;7.00;99.90;;;;;;5012583;28;20025;-59
2021/01/20 04:25:12;;;;;;;17.10;5.95;;;7.00;99.90;;;;;;5013572;28;20485;-58
2021/01/20 04:27:38;;;;;;;14.88;4.75;;;7.00;99.90;;;;;;5013103;28;20440;-52
2021/01/20 04:30:06;;;;;;;16.30;4.90;;;7.00;99.90;;;;;;5012736;28;20073;-60
2021/01/20 04:32:32;;;;;;;15.70;5.20;;;7.00;99.90;;;;;;5012988;28;20099;-57
2021/01/20 04:34:57;;;;;;;15.80;5.25;;;7.00;99.90;;;;;;5012890;28;20022;-56
2021/01/20 04:37:23;;;;;;;14.15;5.18;;;7.00;99.90;;;;;;5012630;28;20075;-60
2021/01/20 04:39:49;;;;;;;14.68;5.22;;;7.00;99.90;;;;;;5012304;28;20393;-59
2021/01/20 04:42:14;;;;;;;16.15;5.40;;;7.00;99.90;;;;;;5012984;28;20057;-58
2021/01/20 04:44:40;;;;;;;15.23;4.93;;;7.00;99.90;;;;;;5012495;28;20124;-59
2021/01/20 04:47:07;;;;;;;15.32;5.10;;;7.10;99.90;;;;;;5012712;28;20022;-59
2021/01/20 04:49:37;;;;;;;15.00;5.00;;;7.00;99.90;;;;;;5012117;28;20501;-51
2021/01/20 04:52:03;;;;;;;14.18;4.85;;;7.20;99.90;;;;;;5012901;28;20030;-54
2021/01/20 04:54:30;;;;;;;14.65;4.90;;;7.10;99.90;;;;;;5012352;28;20029;-59
2021/01/20 04:56:57;;;;;;;15.13;5.22;;;7.10;99.90;;;;;;4994922;28;20080;-58
2021/01/20 04:59:28;;;;;;;16.30;5.60;;;7.10;99.90;;;;;;5012178;28;20022;-60
2021/01/20 05:01:54;;;;;;;16.13;5.32;;;7.10;99.90;;;;;;5012649;28;20025;-58
2021/01/20 05:04:20;;;;;;;14.73;5.63;;;7.10;99.90;;;;;;5012440;28;20393;-54
2021/01/20 05:06:46;;;;;;;15.63;6.47;;;7.00;99.90;;;;;;5012585;28;20036;-61
2021/01/20 05:09:12;;;;;;;16.48;5.20;;;7.00;99.90;;;;;;5011420;28;20061;-56
2021/01/20 05:11:41;;;;;;;15.48;5.32;;;7.00;99.90;;;;;;5012027;28;20532;-58
2021/01/20 05:14:18;;;;;;;17.60;5.40;;;7.00;99.90;;;;;;5012639;28;20390;-59
2021/01/20 05:16:50;;;;;;;13.65;5.05;;;7.10;99.90;;;;;;5012716;28;20100;-60
2021/01/20 05:19:16;;;;;;;14.63;5.60;;;7.10;99.90;;;;;;5011983;28;20026;-60
2021/01/20 05:22:04;;;;;;;17.75;6.05;;;7.10;99.90;;;;;;5012253;28;20100;-55
2021/01/20 05:24:30;;;;;;;15.97;5.47;;;7.20;99.90;;;;;;5012393;28;20026;-60
2021/01/20 05:26:56;;;;;;;16.02;5.85;;;7.20;99.90;;;;;;5012332;28;20364;-55
2021/01/20 05:29:22;;;;;;;15.23;5.85;;;7.20;99.90;;;;;;4993873;28;20177;-59
2021/01/20 05:31:47;;;;;;;14.60;5.50;;;7.20;99.90;;;;;;5011915;28;20042;-57
2021/01/20 05:34:32;;;;;;;14.30;5.53;;;7.10;99.90;;;;;;5013567;28;20049;-59
2021/01/20 05:37:06;;;;;;;14.95;5.53;;;7.00;99.90;;;;;;5016457;28;20026;-58
2021/01/20 05:39:32;;;;;;;12.00;5.03;;;7.00;99.90;;;;;;5015276;28;20018;-59
2021/01/20 05:42:15;;;;;;;13.52;5.13;;;7.10;99.90;;;;;;5016176;28;20040;-59
2021/01/20 05:45:01;;;;;;;14.93;5.85;;;7.10;99.90;;;;;;5015784;28;20041;-57
2021/01/20 05:47:27;;;;;;;15.60;4.93;;;7.10;99.90;;;;;;5015146;28;20109;-59
2021/01/20 05:50:04;;;;;;;13.23;5.15;;;7.10;99.90;;;;;;5015266;28;20771;-59
2021/01/20 05:52:30;;;;;;;14.38;4.80;;;7.20;99.90;;;;;;4998219;28;20497;-56
2021/01/20 05:54:57;;;;;;;14.18;5.13;;;7.30;99.90;;;;;;5015866;28;20030;-56
2021/01/20 05:57:22;;;;;;;14.98;5.50;;;7.30;99.90;;;;;;5015779;28;20014;-54
2021/01/20 05:59:50;;;;;;;15.43;5.65;;;7.30;99.90;;;;;;5014934;28;20028;-60
2021/01/20 06:02:18;;;;;;;14.35;5.45;;;7.30;99.90;;;;;;5015956;28;20122;-58
2021/01/20 06:04:43;;;;;;;16.88;5.20;;;7.30;99.90;;;;;;5015590;28;20073;-60
2021/01/20 06:07:11;;;;;;;14.18;5.60;;;7.30;99.90;;;;;;4997921;28;20446;-59
2021/01/20 06:09:38;;;;;;;14.35;5.10;;;7.40;99.90;;;;;;4997328;28;20026;-59
2021/01/20 06:12:06;;;;;;;13.40;5.10;;;7.40;99.90;;;;;;5015744;28;20026;-60
2021/01/20 06:14:32;;;;;;;14.88;5.15;;;7.30;99.90;;;;;;5015199;28;20084;-60
2021/01/20 06:17:18;;;;;;;14.77;5.43;;;7.20;99.90;;;;;;5014955;28;20104;-59
2021/01/20 06:19:50;;;;;;;15.57;5.32;;;7.10;99.90;;;;;;5014683;28;20025;-58
2021/01/20 06:22:17;;;;;;;22.42;7.50;;;7.20;99.90;;;;;;4997473;28;20072;-59
2021/01/20 06:24:48;;;;;;;13.82;5.38;;;7.20;99.90;;;;;;5015304;28;20105;-60
2021/01/20 06:27:40;;;;;;;16.17;5.60;;;7.20;99.90;;;;;;4997238;28;20032;-58
2021/01/20 06:30:10;;;;;;;17.55;6.25;;;7.20;99.90;;;;;;5014569;28;20022;-58
2021/01/20 06:32:42;;;;;;;15.85;6.32;;;7.10;99.90;;;;;;4997598;28;20555;-57
2021/01/20 06:35:09;;;;;;;16.92;5.85;;;7.10;99.90;;;;;;5014909;28;20474;-58
2021/01/20 06:37:40;;;;;;;17.83;7.47;;;7.20;99.90;;;;;;5015109;28;20506;-60
2021/01/20 06:40:20;;;;;;;16.02;6.20;;;7.10;99.90;;;;;;5014107;28;20037;-57
2021/01/20 06:42:47;;;;;;;13.57;5.70;;;7.20;99.90;;;;;;4997064;28;20026;-61
2021/01/20 06:45:22;;;;;;;14.32;6.72;;;7.20;99.90;;;;;;4996720;28;20490;-60
2021/01/20 06:48:00;;;;;;;16.52;6.28;;;7.20;99.90;;;;;;5014248;28;20553;-56
2021/01/20 06:50:49;;;;;;;16.02;5.80;;;7.30;99.90;;;;;;5014200;28;20038;-59
2021/01/20 06:53:15;;;;;;;16.13;6.80;;;7.20;99.90;;;;;;5014259;28;20038;-61
2021/01/20 06:55:41;;;;;;;14.63;6.07;;;7.30;99.90;;;;;;5014628;28;20088;-60
2021/01/20 06:58:19;;;;;;;14.25;6.45;;;7.20;99.90;;;;;;5014228;28;20069;-59
2021/01/20 07:01:01;;;;;;;14.60;6.13;;;7.30;99.90;;;;;;5014886;28;20032;-59
2021/01/20 07:03:38;;;;;;;14.93;6.28;;;7.30;99.90;;;;;;5014130;28;20260;-55
2021/01/20 07:06:31;;;;;;;15.05;5.70;;;7.30;99.90;;;;;;4997322;28;20555;-59
2021/01/20 07:08:57;;;;;;;15.38;6.18;;;7.30;99.90;;;;;;5014091;28;20153;-57
2021/01/20 07:11:23;;;;;;;13.63;5.95;;;7.40;99.90;;;;;;5014310;28;20053;-59
2021/01/20 07:13:48;;;;;;;15.75;6.05;;;7.50;99.90;;;;;;5014243;28;20129;-56
2021/01/20 07:16:17;;;;;;;15.50;6.50;;;7.50;99.90;;;;;;5035472;23;20707;-63
2021/01/20 07:18:48;;;;;;;14.20;6.40;;;7.50;99.90;;;;;;5006812;28;20077;-64
2021/01/20 07:21:14;;;;;;;15.55;5.95;;;7.60;99.90;;;;;;5009436;28;20022;-64
2021/01/20 07:23:40;;;;;;;13.38;5.90;;;7.60;99.90;;;;;;5018053;28;20164;-63
2021/01/20 07:26:06;;;;;;;13.50;5.85;;;7.60;99.90;;;;;;5028449;28;20504;-64
2021/01/20 07:28:33;;;;;;;13.55;6.05;;;7.70;99.90;;;;;;5009865;28;20116;-64
2021/01/20 07:31:16;;;;;;;15.50;6.53;;;7.70;99.90;;;;;;5010413;28;20030;-63
2021/01/20 07:33:51;;;;;;;13.65;6.07;;;7.70;99.90;;;;;;4978238;28;20041;-61
2021/01/20 07:36:20;;;;;;;14.07;5.28;;;7.80;99.90;;;;;;5007088;28;20543;-63
2021/01/20 07:38:47;;;;;;;13.00;5.60;;;7.80;99.90;;;;;;5007123;28;20555;-61
2021/01/20 07:41:19;;;;;;;14.23;5.75;;;7.90;99.90;;;;;;5012619;28;20060;-64
2021/01/20 07:43:45;;;;;;;14.45;5.68;;;7.90;99.90;;;;;;5012496;28;20056;-65
2021/01/20 07:46:23;;;;;;;13.75;5.50;;;7.90;99.90;;;;;;4994720;28;20030;-62
2021/01/20 07:48:50;;;;;;;14.40;6.22;;;8.00;99.90;;;;;;5012140;28;20500;-65
2021/01/20 07:51:18;;;;;;;14.27;5.57;;;8.00;99.90;;;;;;5008210;28;20026;-64
2021/01/20 07:54:00;;;;;;;14.15;5.70;;;8.00;99.90;;;;;;4992849;28;20034;-63
2021/01/20 07:56:26;;;;;;;13.25;5.55;;;8.10;99.90;;;;;;4991992;28;20022;-61
2021/01/20 07:58:52;;;;;;;11.90;5.47;;;8.10;99.90;;;;;;4991805;28;20023;-64
2021/01/20 08:01:28;;;;;;;13.73;5.40;;;8.20;99.90;;;;;;4975053;28;20022;-62
2021/01/20 08:03:55;;;;;;;13.13;5.93;;;8.30;99.90;;;;;;4992419;28;20093;-63
2021/01/20 08:06:21;;;;;;;14.50;5.78;;;8.40;99.90;;;;;;5006707;28;20099;-61
2021/01/20 08:08:54;;;;;;;13.30;5.45;;;8.40;99.90;;;;;;4996505;28;20021;-60
2021/01/20 08:11:21;;;;;;;11.68;5.18;;;8.50;99.90;;;;;;5014124;28;20018;-64
2021/01/20 08:13:49;;;;;;;13.38;5.40;;;8.50;99.90;;;;;;5013803;28;20036;-61
2021/01/20 08:16:14;;;;;;;12.05;5.20;;;8.60;99.90;;;;;;5004025;28;20112;-64
2021/01/20 08:18:42;;;;;;;13.35;5.65;;;8.60;99.90;;;;;;5012967;28;20485;-63
2021/01/20 08:21:08;;;;;;;11.23;4.95;;;8.60;99.90;;;;;;5014045;28;20067;-62
2021/01/20 08:23:48;;;;;;;12.85;5.55;;;8.70;99.90;;;;;;5013843;28;20025;-64
2021/01/20 08:26:14;;;;;;;12.75;5.57;;;8.70;99.90;;;;;;5013489;28;20120;-64
2021/01/20 08:29:05;;;;;;;14.55;5.70;;;8.70;99.90;;;;;;5010014;28;20036;-63
2021/01/20 08:31:31;;;;;;;13.45;5.40;;;8.70;99.90;;;;;;5011354;28;20030;-64
2021/01/20 08:34:24;;;;;;;11.10;5.00;;;8.70;99.90;;;;;;5009492;28;20022;-63
2021/01/20 08:37:04;;;;;;;12.30;5.07;;;8.70;99.90;;;;;;4997449;28;20075;-61
2021/01/20 08:39:37;;;;;;;13.82;5.13;;;8.80;99.90;;;;;;5009570;28;20037;-61
2021/01/20 08:42:17;;;;;;;15.07;5.47;;;8.80;99.90;;;;;;5010096;28;20030;-63
2021/01/20 08:45:09;;;;;;;11.88;4.78;;;8.80;99.90;;;;;;5013303;28;20171;-62
2021/01/20 08:48:07;;;;;;;12.18;5.38;;;8.80;99.90;;;;;;5012681;28;20029;-62
2021/01/20 08:50:36;;;;;;;11.93;5.75;;;8.80;99.90;;;;;;5021198;28;20049;-63
2021/01/20 08:53:12;;;;;;;13.00;5.22;;;8.80;99.90;;;;;;5012149;28;20028;-62
2021/01/20 08:55:49;;;;;;;14.93;5.47;;;8.80;99.90;;;;;;5010175;28;20061;-62
2021/01/20 08:58:29;;;;;;;11.98;4.60;;;8.80;99.90;;;;;;5010316;28;20072;-61
2021/01/20 09:00:55;;;;;;;13.23;5.10;;;8.90;99.90;;;;;;5011369;28;20030;-61
2021/01/20 09:03:23;;;;;;;13.95;5.20;;;8.80;99.90;;;;;;5009674;28;20099;-60
2021/01/20 09:05:51;;;;;;;12.25;5.47;;;8.90;99.90;;;;;;5011084;28;20458;-61
2021/01/20 09:08:17;;;;;;;13.70;5.40;;;8.90;99.90;;;;;;5010727;28;20461;-62
2021/01/20 09:10:44;;;;;;;13.13;5.65;;;8.90;99.90;;;;;;5010365;28;20509;-63
2021/01/20 09:13:11;;;;;;;14.52;5.45;;;8.90;99.90;;;;;;4993204;28;20105;-63
2021/01/20 09:15:37;;;;;;;14.02;5.80;;;8.90;99.90;;;;;;5010402;28;20030;-61
2021/01/20 09:18:06;;;;;;;13.50;5.68;;;8.80;99.90;;;;;;4992683;28;20485;-63
2021/01/20 09:20:35;;;;;;;14.40;5.65;;;8.90;99.90;;;;;;5010043;28;20053;-63
2021/01/20 09:23:03;;;;;;;13.38;5.53;;;8.90;99.90;;;;;;5010745;28;20500;-64
2021/01/20 09:25:29;;;;;;;13.13;5.15;;;8.90;99.90;;;;;;5010568;28;20030;-63
2021/01/20 09:27:55;;;;;;;13.40;5.30;;;8.80;99.90;;;;;;5010738;28;20074;-64
2021/01/20 09:30:20;;;;;;;13.25;5.53;;;8.80;99.90;;;;;;4992317;28;20171;-63
2021/01/20 09:32:46;;;;;;;12.50;5.55;;;8.80;99.90;;;;;;5010347;28;20022;-64
2021/01/20 09:35:14;;;;;;;12.93;5.20;;;8.80;99.90;;;;;;5009853;28;20183;-60
2021/01/20 09:37:40;;;;;;;14.10;4.90;;;8.80;99.90;;;;;;5010358;28;20066;-60
2021/01/20 09:40:12;;;;;;;11.07;4.60;;;8.80;99.90;;;;;;5009706;28;20037;-60
2021/01/20 09:42:39;;;;;;;10.98;4.50;;;8.80;99.90;;;;;;4992661;28;20080;-60
2021/01/20 09:45:07;;;;;;;14.13;5.22;;;8.80;99.90;;;;;;5020751;28;20030;-59
2021/01/20 09:47:35;;;;;;;13.90;4.85;;;8.90;99.90;;;;;;5016774;28;20057;-60
2021/01/20 09:50:02;;;;;;;13.95;4.80;;;8.90;99.90;;;;;;5029144;28;20096;-60
2021/01/20 09:52:28;;;;;;;14.13;5.10;;;8.90;99.90;;;;;;5012581;28;20033;-61
2021/01/20 09:54:54;;;;;;;13.18;4.88;;;8.90;99.90;;;;;;5012919;28;20045;-60
2021/01/20 09:57:21;;;;;;;13.85;5.30;;;8.90;99.90;;;;;;5032385;28;20093;-56
2021/01/20 09:59:47;;;;;;;12.82;5.55;;;9.10;99.90;;;;;;5029941;28;20022;-61
2021/01/20 10:02:13;;;;;;;12.38;5.03;;;9.10;99.90;;;;;;5030265;28;20022;-60
2021/01/20 10:04:39;;;;;;;13.10;5.38;;;9.10;99.90;;;;;;5011580;28;20141;-59
2021/01/20 10:07:05;;;;;;;15.35;5.35;;;9.20;99.90;;;;;;5030369;28;20021;-60
2021/01/20 10:09:33;;;;;;;13.35;5.60;;;9.20;99.90;;;;;;5011447;28;20025;-60
2021/01/20 10:11:58;;;;;;;13.60;5.70;;;9.20;99.90;;;;;;5012488;28;20029;-60
2021/01/20 10:14:24;;;;;;;13.88;5.68;;;9.20;99.90;;;;;;5011815;28;20186;-61
2021/01/20 10:16:52;;;;;;;13.57;5.88;;;9.20;99.90;;;;;;5012386;28;20034;-58
2021/01/20 10:19:18;;;;;;;14.35;5.63;;;9.20;99.90;;;;;;5028916;28;20103;-59
2021/01/20 10:21:43;;;;;;;14.48;6.53;;;9.20;99.90;;;;;;5032422;28;20073;-59
2021/01/20 10:24:09;;;;;;;13.77;6.28;;;9.20;99.90;;;;;;5033285;28;20475;-60
2021/01/20 10:26:39;;;;;;;13.02;5.80;;;9.30;99.90;;;;;;5033467;28;20040;-59
2021/01/20 10:29:06;;;;;;;14.10;5.63;;;9.20;99.90;;;;;;4985976;28;20036;-59
2021/01/20 10:31:36;;;;;;;15.07;6.70;;;9.30;99.90;;;;;;5002089;28;20089;-58
2021/01/20 10:34:04;;;;;;;14.18;6.05;;;9.30;99.90;;;;;;4996420;28;20022;-59
2021/01/20 10:36:30;;;;;;;14.40;6.40;;;9.30;99.90;;;;;;4999779;28;20389;-60
2021/01/20 10:38:57;;;;;;;13.25;5.88;;;9.30;99.90;;;;;;4995119;28;20084;-62
2021/01/20 10:41:24;;;;;;;14.85;6.60;;;9.30;99.90;;;;;;4995520;28;20470;-60
2021/01/20 10:43:51;;;;;;;15.20;6.35;;;9.40;99.90;;;;;;4995914;28;20033;-62
2021/01/20 10:46:17;;;;;;;14.05;6.55;;;9.50;99.90;;;;;;5026827;28;20032;-61
2021/01/20 10:48:44;;;;;;;14.45;6.32;;;9.40;99.90;;;;;;5011351;28;20026;-63
2021/01/20 10:51:10;;;;;;;14.73;6.78;;;9.40;99.90;;;;;;5021424;28;20036;-59
2021/01/20 10:53:40;;;;;;;14.32;6.40;;;9.40;99.90;;;;;;5023366;28;20084;-61
2021/01/20 10:56:07;;;;;;;14.38;6.82;;;9.30;99.90;;;;;;4994178;28;20076;-61
2021/01/20 10:58:33;;;;;;;14.18;6.47;;;9.30;99.90;;;;;;4994642;28;20033;-58
2021/01/20 11:00:59;;;;;;;15.10;7.30;;;9.30;99.90;;;;;;5012674;28;20061;-57
2021/01/20 11:03:25;;;;;;;15.38;7.53;;;9.40;99.90;;;;;;5012675;28;20030;-60
2021/01/20 11:05:50;;;;;;;15.15;7.30;;;9.60;99.90;;;;;;5012785;28;20037;-59
2021/01/20 11:08:16;;;;;;;15.38;7.13;;;9.90;99.90;;;;;;5012760;28;20041;-60
2021/01/20 11:10:42;;;;;;;15.45;7.40;;;10.30;99.90;;;;;;5012473;28;20393;-60
2021/01/20 11:13:07;;;;;;;15.60;7.82;;;10.80;99.90;;;;;;4995507;28;20025;-58
2021/01/20 11:15:47;;;;;;;17.73;8.70;;;11.20;99.90;;;;;;4994856;28;20040;-59
2021/01/20 11:18:14;;;;;;;16.45;8.30;;;11.50;99.90;;;;;;5013213;28;20033;-58
2021/01/20 11:20:41;;;;;;;15.68;8.18;;;11.60;99.90;;;;;;5012063;28;20061;-60
2021/01/20 11:23:07;;;;;;;16.02;8.57;;;11.80;99.90;;;;;;4993417;28;20142;-59
2021/01/20 11:25:33;;;;;;;16.90;8.55;;;11.90;99.90;;;;;;4993061;28;20219;-60
2021/01/20 11:28:00;;;;;;;15.63;7.80;;;11.80;99.90;;;;;;5011568;28;20048;-60
2021/01/20 11:30:26;;;;;;;14.95;8.15;;;11.70;99.90;;;;;;5011374;28;20049;-59
2021/01/20 11:32:52;;;;;;;15.10;7.80;;;11.60;99.90;;;;;;5011541;28;20034;-59
2021/01/20 11:35:18;;;;;;;16.23;7.85;;;11.10;99.90;;;;;;4993725;28;20458;-62
2021/01/20 11:37:44;;;;;;;14.80;8.20;;;11.00;99.90;;;;;;5011738;28;20359;-59
2021/01/20 11:40:10;;;;;;;15.73;8.13;;;11.10;99.90;;;;;;5012338;28;20029;-59
2021/01/20 11:42:36;;;;;;;16.10;8.90;;;11.40;99.90;;;;;;5012497;28;20117;-59
2021/01/20 11:45:03;;;;;;;15.52;8.40;;;11.60;99.90;;;;;;5012547;28;20565;-58
2021/01/20 11:47:29;;;;;;;16.10;8.88;;;11.70;99.90;;;;;;5012353;28;20363;-58
2021/01/20 11:49:54;;;;;;;18.88;9.05;;;11.80;99.90;;;;;;5011609;28;20041;-60
2021/01/20 11:52:21;;;;;;;17.58;8.27;;;11.80;99.90;;;;;;5012432;28;20026;-60
2021/01/20 11:54:47;;;;;;;14.48;8.35;;;11.50;99.90;;;;;;5012132;28;20474;-60
2021/01/20 11:57:13;;;;;;;15.32;8.60;;;11.70;99.90;;;;;;5012094;28;20042;-59
2021/01/20 11:59:39;;;;;;;16.08;8.30;;;11.80;99.90;;;;;;5011505;28;20025;-59
2021/01/20 12:02:05;;;;;;;15.85;8.48;;;11.30;99.90;;;;;;4994154;28;20026;-56
2021/01/20 12:04:31;;;;;;;14.82;8.15;;;11.40;99.90;;;;;;5012234;28;20406;-60
2021/01/20 12:06:56;;;;;;;15.30;8.35;;;11.90;99.90;;;;;;5011509;28;20030;-56
2021/01/20 12:09:22;;;;;;;14.93;8.40;;;11.90;99.90;;;;;;5011334;28;20037;-59
2021/01/20 12:11:48;;;;;;;16.17;8.48;;;11.50;99.90;;;;;;5011458;28;20037;-59
2021/01/20 12:14:14;;;;;;;16.55;8.40;;;11.40;99.90;;;;;;5005992;28;20026;-61
2021/01/20 12:16:40;;;;;;;14.70;8.30;;;11.70;99.90;;;;;;5008216;28;20038;-60
2021/01/20 12:19:06;;;;;;;14.50;8.10;;;11.40;99.90;;;;;;4996162;28;20025;-59
2021/01/20 12:21:32;;;;;;;14.98;8.25;;;11.20;99.90;;;;;;5017200;28;20059;-59
2021/01/20 12:23:58;;;;;;;15.45;8.20;;;11.10;99.90;;;;;;5015837;28;20057;-60
2021/01/20 12:26:23;;;;;;;15.35;8.40;;;11.00;99.90;;;;;;5010391;28;20375;-61
2021/01/20 12:28:49;;;;;;;15.35;8.60;;;11.00;99.90;;;;;;5008402;28;20034;-60
2021/01/20 12:31:15;;;;;;;16.90;7.80;;;11.10;99.90;;;;;;5011580;28;20041;-60
2021/01/20 12:33:41;;;;;;;15.27;8.25;;;11.10;99.90;;;;;;5011972;28;20102;-60
2021/01/20 12:36:07;;;;;;;15.68;8.35;;;11.00;99.90;;;;;;4995058;28;20412;-60
2021/01/20 12:38:32;;;;;;;16.85;8.45;;;10.80;99.90;;;;;;5012342;28;20088;-61
2021/01/20 12:40:58;;;;;;;15.82;8.45;;;10.70;99.90;;;;;;5013730;28;20492;-60
2021/01/20 12:43:24;;;;;;;16.85;8.50;;;10.80;99.90;;;;;;5013133;28;20033;-60
2021/01/20 12:45:50;;;;;;;15.00;8.60;;;10.80;99.90;;;;;;5012208;28;20033;-60
2021/01/20 12:48:16;;;;;;;15.98;8.32;;;10.80;99.90;;;;;;5012825;28;20026;-61
2021/01/20 12:50:42;;;;;;;16.23;8.27;;;10.90;99.90;;;;;;5011604;28;20068;-60